Time;durP1;ratioP1;P1;durP2;ratioP2;P2;SDS_P1;SDS_P2;PMS_P1;PMS_P2;Temp;Humidity;BMP_temperature;BMP_pressure;BME280_temperature;BME280_humidity;BME280_pressure;Samples;Min_cycle;Max_cycle;Signal;HPM_P1;HPM_P2
2024/04/11 00:01:22;;;;;;;8.52;4.45;;;;;;;;;;5414528;26;20007;-62
2024/04/11 00:03:48;;;;;;;9.40;4.07;;;;;;;;;;5419108;26;20010;-62
2024/04/11 00:06:13;;;;;;;10.55;4.03;;;;;;;;;;5433101;26;20010;-63
2024/04/11 00:08:39;;;;;;;11.05;4.30;;;;;;;;;;5446482;26;20011;-62
2024/04/11 00:11:04;;;;;;;9.55;3.78;;;;;;;;;;5423192;26;20023;-65
2024/04/11 00:13:30;;;;;;;10.50;4.50;;;;;;;;;;5416402;26;20003;-62
2024/04/11 00:15:56;;;;;;;11.50;4.45;;;;;;;;;;5413787;26;20068;-62
2024/04/11 00:18:23;;;;;;;;;;;;;;;;;;5413976;26;20010;-63
2024/04/11 00:20:48;;;;;;;8.57;3.72;;;;;;;;;;5413538;26;19957;-64
2024/04/11 00:23:14;;;;;;;9.98;4.22;;;;;;;;;;5422789;26;20072;-63
2024/04/11 00:25:41;;;;;;;10.00;4.03;;;;;;;;;;5419579;26;20019;-62
2024/04/11 00:28:07;;;;;;;8.50;4.05;;;;;;;;;;5449507;26;19994;-62
2024/04/11 00:30:32;;;;;;;8.40;3.78;;;;;;;;;;5415014;26;20014;-63
2024/04/11 00:32:59;;;;;;;9.88;4.20;;;;;;;;;;5416939;26;20405;-62
2024/04/11 00:35:25;;;;;;;8.45;3.97;;;;;;;;;;5416568;26;20040;-63
2024/04/11 00:37:51;;;;;;;8.00;3.95;;;;;;;;;;5422023;26;20446;-64
2024/04/11 00:40:17;;;;;;;;;;;;;;;;;;5445045;26;19999;-63
2024/04/11 00:42:43;;;;;;;11.90;4.28;;;;;;;;;;5422915;26;19931;-63
2024/04/11 00:45:09;;;;;;;8.32;4.03;;;;;;;;;;5416835;26;20012;-62
2024/04/11 00:47:34;;;;;;;9.38;4.32;;;;;;;;;;5415169;26;20079;-61
2024/04/11 00:50:01;;;;;;;9.25;4.18;;;;;;;;;;5429873;26;20005;-66
2024/04/11 00:52:26;;;;;;;9.55;4.10;;;;;;;;;;5430250;26;20009;-62
2024/04/11 00:54:52;;;;;;;8.15;3.72;;;;;;;;;;5434383;26;20400;-61
2024/04/11 00:57:19;;;;;;;9.13;4.20;;;;;;;;;;5444841;26;19996;-63
2024/04/11 00:59:45;;;;;;;11.40;4.10;;;;;;;;;;5422829;26;20019;-62
2024/04/11 01:02:10;;;;;;;9.32;4.20;;;;;;;;;;5447728;26;20075;-64
2024/04/11 01:04:36;;;;;;;9.00;4.45;;;;;;;;;;5416286;26;20008;-63
2024/04/11 01:07:08;;;;;;;9.15;4.10;;;;;;;;;;5415966;26;20000;-61
2024/04/11 01:09:35;;;;;;;8.45;3.78;;;;;;;;;;5416333;26;20004;-64
2024/04/11 01:12:01;;;;;;;9.45;4.38;;;;;;;;;;5431608;26;20009;-63
2024/04/11 01:14:26;;;;;;;10.27;4.15;;;;;;;;;;5438925;26;19999;-63
2024/04/11 01:16:52;;;;;;;8.10;3.78;;;;;;;;;;5438601;26;19999;-63
2024/04/11 01:19:19;;;;;;;9.25;4.32;;;;;;;;;;5416317;26;20027;-63
2024/04/11 01:21:45;;;;;;;7.82;3.45;;;;;;;;;;5416847;26;19999;-62
2024/04/11 01:24:13;;;;;;;8.07;4.20;;;;;;;;;;5439624;26;20005;-65
2024/04/11 01:26:38;;;;;;;10.40;4.15;;;;;;;;;;5443648;26;20000;-62
2024/04/11 01:29:06;;;;;;;9.95;4.22;;;;;;;;;;5466694;26;19995;-63
2024/04/11 01:31:31;;;;;;;9.25;4.03;;;;;;;;;;5461293;26;19994;-62
2024/04/11 01:33:57;;;;;;;9.57;4.20;;;;;;;;;;5430826;26;20006;-62
2024/04/11 01:36:23;;;;;;;8.52;4.10;;;;;;;;;;5426802;26;20003;-64
2024/04/11 01:38:50;;;;;;;9.52;4.30;;;;;;;;;;5459429;26;19991;-63
2024/04/11 01:41:15;;;;;;;8.45;4.15;;;;;;;;;;5449266;26;20030;-63
2024/04/11 01:43:41;;;;;;;11.93;4.65;;;;;;;;;;5431023;26;20003;-64
2024/04/11 01:46:07;;;;;;;8.80;3.90;;;;;;;;;;5415341;26;20011;-64
2024/04/11 01:48:34;;;;;;;8.07;3.95;;;;;;;;;;5427582;26;19999;-63
2024/04/11 01:50:59;;;;;;;10.73;4.00;;;;;;;;;;5415230;26;20012;-63
2024/04/11 01:53:25;;;;;;;10.82;4.65;;;;;;;;;;5437837;26;20032;-64
2024/04/11 01:55:50;;;;;;;9.60;4.10;;;;;;;;;;5438305;26;20066;-63
2024/04/11 01:58:16;;;;;;;8.73;4.35;;;;;;;;;;5449750;26;19995;-63
2024/04/11 02:00:43;;;;;;;8.98;3.92;;;;;;;;;;5416514;26;20447;-63
2024/04/11 02:03:09;;;;;;;9.43;3.85;;;;;;;;;;5415709;26;20379;-63
2024/04/11 02:05:34;;;;;;;10.63;4.30;;;;;;;;;;5425808;26;20003;-65
2024/04/11 02:08:01;;;;;;;8.75;4.10;;;;;;;;;;5451078;26;19991;-63
2024/04/11 02:10:27;;;;;;;9.15;4.03;;;;;;;;;;5438285;26;20049;-62
2024/04/11 02:12:52;;;;;;;11.88;4.55;;;;;;;;;;5448125;26;20014;-62
2024/04/11 02:15:18;;;;;;;11.52;4.80;;;;;;;;;;5453686;26;20070;-64
2024/04/11 02:17:43;;;;;;;9.98;4.20;;;;;;;;;;5462049;26;20043;-65
2024/04/11 02:20:13;;;;;;;8.98;4.22;;;;;;;;;;5419944;26;19999;-61
2024/04/11 02:22:38;;;;;;;8.48;4.03;;;;;;;;;;5414716;26;20000;-62
2024/04/11 02:25:04;;;;;;;7.88;3.83;;;;;;;;;;5425307;26;20336;-63
2024/04/11 02:27:29;;;;;;;7.30;3.88;;;;;;;;;;5434302;26;20003;-62
2024/04/11 02:29:55;;;;;;;8.23;3.95;;;;;;;;;;5440814;26;20017;-63
2024/04/11 02:32:21;;;;;;;7.88;3.90;;;;;;;;;;5414681;26;20101;-62
2024/04/11 02:34:47;;;;;;;8.05;4.30;;;;;;;;;;5415000;26;20048;-62
2024/04/11 02:37:14;;;;;;;11.00;4.60;;;;;;;;;;5414780;26;19995;-62
2024/04/11 02:39:39;;;;;;;9.15;4.20;;;;;;;;;;5414835;26;20347;-63
2024/04/11 02:42:07;;;;;;;7.30;3.97;;;;;;;;;;5415033;26;20005;-64
2024/04/11 02:44:34;;;;;;;10.18;4.65;;;;;;;;;;5431882;26;20003;-62
2024/04/11 02:47:01;;;;;;;;;;;;;;;;;;5445883;26;19995;-62
2024/04/11 02:49:26;;;;;;;8.98;3.85;;;;;;;;;;5436780;26;19932;-63
2024/04/11 02:51:53;;;;;;;7.25;4.07;;;;;;;;;;5415777;26;19995;-64
2024/04/11 02:54:18;;;;;;;9.13;4.05;;;;;;;;;;5411875;26;20000;-62
2024/04/11 02:56:44;;;;;;;7.30;3.78;;;;;;;;;;5430848;26;20412;-62
2024/04/11 02:59:11;;;;;;;9.25;4.13;;;;;;;;;;5445289;26;20010;-62
2024/04/11 03:01:38;;;;;;;;;;;;;;;;;;5431837;26;19995;-63
2024/04/11 03:04:03;;;;;;;9.45;4.45;;;;;;;;;;5449884;26;20325;-61
2024/04/11 03:06:31;;;;;;;9.40;4.60;;;;;;;;;;5450058;26;19999;-62
2024/04/11 03:08:57;;;;;;;9.05;4.45;;;;;;;;;;5449796;26;20454;-63
2024/04/11 03:11:26;;;;;;;;;;;;;;;;;;5421668;26;20000;-62
2024/04/11 03:13:56;;;;;;;15.38;7.07;;;;;;;;;;5436064;26;20388;-62
2024/04/11 03:16:22;;;;;;;11.32;4.45;;;;;;;;;;5444609;26;20479;-61
2024/04/11 03:18:47;;;;;;;9.55;4.20;;;;;;;;;;5433931;26;20055;-62
2024/04/11 03:21:13;;;;;;;8.90;4.18;;;;;;;;;;5414272;26;20075;-62
2024/04/11 03:23:38;;;;;;;9.23;4.15;;;;;;;;;;5413911;26;20014;-62
2024/04/11 03:26:04;;;;;;;8.15;3.80;;;;;;;;;;5414206;26;20011;-62
2024/04/11 03:28:29;;;;;;;10.20;4.18;;;;;;;;;;5425938;26;20169;-61
2024/04/11 03:30:55;;;;;;;10.80;4.15;;;;;;;;;;5449730;26;20015;-63
2024/04/11 03:33:21;;;;;;;9.32;4.25;;;;;;;;;;5444203;26;19999;-64
2024/04/11 03:35:53;;;;;;;9.18;4.25;;;;;;;;;;5435272;26;20051;-62
2024/04/11 03:38:19;;;;;;;8.45;3.97;;;;;;;;;;5413762;26;20011;-64
2024/04/11 03:40:53;;;;;;;8.68;4.00;;;;;;;;;;5435128;26;20071;-63
2024/04/11 03:43:19;;;;;;;9.70;4.68;;;;;;;;;;5449720;26;20014;-63
2024/04/11 03:45:45;;;;;;;7.57;3.90;;;;;;;;;;5449366;26;20011;-62
2024/04/11 03:48:10;;;;;;;11.23;4.25;;;;;;;;;;5445204;26;20011;-62
2024/04/11 03:50:36;;;;;;;9.35;4.13;;;;;;;;;;5449292;26;20075;-62
2024/04/11 03:53:01;;;;;;;9.30;4.25;;;;;;;;;;5449261;26;20075;-62
2024/04/11 03:55:27;;;;;;;7.22;3.47;;;;;;;;;;5449337;26;19994;-62
2024/04/11 03:57:53;;;;;;;8.57;4.10;;;;;;;;;;5449646;26;20006;-62
2024/04/11 04:00:19;;;;;;;9.07;4.03;;;;;;;;;;5449311;26;20356;-61
2024/04/11 04:02:45;;;;;;;10.95;4.13;;;;;;;;;;5421355;26;19999;-63
2024/04/11 04:05:13;;;;;;;8.05;3.75;;;;;;;;;;5430467;26;20183;-62
2024/04/11 04:07:38;;;;;;;10.35;4.32;;;;;;;;;;5442343;26;20108;-63
2024/04/11 04:10:04;;;;;;;11.48;4.55;;;;;;;;;;5438187;26;20406;-64
2024/04/11 04:12:29;;;;;;;7.85;3.72;;;;;;;;;;5453297;26;20420;-64
2024/04/11 04:14:55;;;;;;;8.07;3.92;;;;;;;;;;5455749;26;20416;-63
2024/04/11 04:17:23;;;;;;;8.10;3.80;;;;;;;;;;5453507;26;20436;-62
2024/04/11 04:19:49;;;;;;;9.80;4.30;;;;;;;;;;5429974;26;20002;-64
2024/04/11 04:22:16;;;;;;;9.77;4.05;;;;;;;;;;5452334;26;20506;-63
2024/04/11 04:24:41;;;;;;;7.65;4.65;;;;;;;;;;5453233;26;20034;-63
2024/04/11 04:27:07;;;;;;;8.40;3.90;;;;;;;;;;5452693;26;20007;-62
2024/04/11 04:29:32;;;;;;;7.55;4.15;;;;;;;;;;5423283;26;20004;-64
2024/04/11 04:31:58;;;;;;;7.53;3.80;;;;;;;;;;5434314;26;20014;-63
2024/04/11 04:34:25;;;;;;;8.02;4.07;;;;;;;;;;5426935;26;20428;-63
2024/04/11 04:36:50;;;;;;;6.93;3.92;;;;;;;;;;5420178;26;20014;-65
2024/04/11 04:39:16;;;;;;;9.18;4.45;;;;;;;;;;5414001;26;20011;-63
2024/04/11 04:41:42;;;;;;;9.18;4.28;;;;;;;;;;5419652;26;20074;-64
2024/04/11 04:44:08;;;;;;;8.68;4.07;;;;;;;;;;5436890;26;20662;-64
2024/04/11 04:46:33;;;;;;;9.27;4.50;;;;;;;;;;5420939;26;20319;-64
2024/04/11 04:49:00;;;;;;;8.38;4.00;;;;;;;;;;5446880;26;20002;-64
2024/04/11 04:51:31;;;;;;;11.35;4.85;;;;;;;;;;5451037;26;20003;-64
2024/04/11 04:53:59;;;;;;;7.22;4.05;;;;;;;;;;5441669;26;20007;-63
2024/04/11 04:56:27;;;;;;;11.35;4.47;;;;;;;;;;5439390;26;20003;-65
2024/04/11 04:58:53;;;;;;;9.50;4.22;;;;;;;;;;5433309;26;20030;-66
2024/04/11 05:01:20;;;;;;;10.75;5.00;;;;;;;;;;5440198;26;20515;-63
2024/04/11 05:03:46;;;;;;;8.77;4.07;;;;;;;;;;5444169;26;20006;-65
2024/04/11 05:06:15;;;;;;;10.00;4.43;;;;;;;;;;5432334;26;20494;-63
2024/04/11 05:08:47;;;;;;;9.48;4.53;;;;;;;;;;5436139;26;20000;-65
2024/04/11 05:11:13;;;;;;;;;;;;;;;;;;5435478;26;20032;-64
2024/04/11 05:13:39;;;;;;;10.13;4.93;;;;;;;;;;5439398;26;20309;-63
2024/04/11 05:16:07;;;;;;;11.55;3.75;;;;;;;;;;5425933;26;20324;-65
2024/04/11 05:18:37;;;;;;;9.98;5.28;;;;;;;;;;5422580;26;20014;-64
2024/04/11 05:21:02;;;;;;;9.65;4.78;;;;;;;;;;5435814;26;20051;-65
2024/04/11 05:23:32;;;;;;;8.75;4.80;;;;;;;;;;5435307;26;20026;-65
2024/04/11 05:25:58;;;;;;;11.50;4.60;;;;;;;;;;5446778;26;20335;-64
2024/04/11 05:28:25;;;;;;;9.07;4.70;;;;;;;;;;5444863;26;20005;-65
2024/04/11 05:30:51;;;;;;;12.15;4.78;;;;;;;;;;5433304;26;20339;-64
2024/04/11 05:33:16;;;;;;;8.30;4.13;;;;;;;;;;5411258;26;19996;-65
2024/04/11 05:35:42;;;;;;;8.48;4.25;;;;;;;;;;5413018;26;20015;-62
2024/04/11 05:38:10;;;;;;;8.52;4.53;;;;;;;;;;5412304;26;20004;-64
2024/04/11 05:40:36;;;;;;;7.50;4.10;;;;;;;;;;5412034;26;20034;-66
2024/04/11 05:43:06;;;;;;;7.50;4.32;;;;;;;;;;5439645;26;19998;-63
2024/04/11 05:45:33;;;;;;;8.80;4.15;;;;;;;;;;5427765;26;19995;-64
2024/04/11 05:48:00;;;;;;;9.95;4.57;;;;;;;;;;5439395;26;20009;-68
2024/04/11 05:50:25;;;;;;;;;;;;;;;;;;5420547;26;20336;-65
2024/04/11 05:52:52;;;;;;;9.77;3.87;;;;;;;;;;5411782;26;19952;-65
2024/04/11 05:55:18;;;;;;;8.93;4.53;;;;;;;;;;5429220;26;20403;-64
2024/04/11 05:57:44;;;;;;;7.95;4.32;;;;;;;;;;5436922;26;20532;-63
2024/04/11 06:00:11;;;;;;;7.93;4.18;;;;;;;;;;5443208;26;20068;-63
2024/04/11 06:02:38;;;;;;;7.47;3.63;;;;;;;;;;5414594;26;20079;-63
2024/04/11 06:05:06;;;;;;;8.98;4.22;;;;;;;;;;5427625;26;19998;-64
2024/04/11 06:07:31;;;;;;;7.95;4.10;;;;;;;;;;5453418;26;19991;-65
2024/04/11 06:10:00;;;;;;;7.80;3.95;;;;;;;;;;5446074;26;20008;-63
2024/04/11 06:12:25;;;;;;;9.07;3.75;;;;;;;;;;5447060;26;20008;-66
2024/04/11 06:14:53;;;;;;;8.13;3.75;;;;;;;;;;5432766;26;19992;-67
2024/04/11 06:17:19;;;;;;;8.80;4.13;;;;;;;;;;5435938;26;19999;-64
2024/04/11 06:19:45;;;;;;;8.40;3.97;;;;;;;;;;5437480;26;20063;-63
2024/04/11 06:22:11;;;;;;;8.65;3.67;;;;;;;;;;5450376;26;19999;-63
2024/04/11 06:24:37;;;;;;;7.60;3.55;;;;;;;;;;5444667;26;20076;-61
2024/04/11 06:27:03;;;;;;;6.43;3.50;;;;;;;;;;5424635;26;20022;-63
2024/04/11 06:29:28;;;;;;;7.85;3.67;;;;;;;;;;5426813;26;19995;-65
2024/04/11 06:31:54;;;;;;;8.80;4.13;;;;;;;;;;5441237;26;20473;-63
2024/04/11 06:34:20;;;;;;;8.38;4.05;;;;;;;;;;5440131;26;20003;-67
2024/04/11 06:36:49;;;;;;;9.45;4.07;;;;;;;;;;5428402;26;19996;-63
2024/04/11 06:39:17;;;;;;;9.45;4.10;;;;;;;;;;5437840;26;20018;-67
2024/04/11 06:41:42;;;;;;;10.02;4.45;;;;;;;;;;5448065;26;20026;-66
2024/04/11 06:44:12;;;;;;;8.07;4.10;;;;;;;;;;5427585;26;20330;-64
2024/04/11 06:46:39;;;;;;;9.63;4.85;;;;;;;;;;5447611;26;19998;-64
2024/04/11 06:49:04;;;;;;;10.73;4.45;;;;;;;;;;5444425;26;19999;-64
2024/04/11 06:51:34;;;;;;;10.23;5.13;;;;;;;;;;5424035;26;20011;-64
2024/04/11 06:53:59;;;;;;;9.82;5.00;;;;;;;;;;5438969;26;20011;-64
2024/04/11 06:56:25;;;;;;;9.25;4.75;;;;;;;;;;5450662;26;20301;-65
2024/04/11 06:58:51;;;;;;;11.10;5.93;;;;;;;;;;5439592;26;20384;-63
2024/04/11 07:01:16;;;;;;;12.88;5.20;;;;;;;;;;5450160;26;19998;-64
2024/04/11 07:03:49;;;;;;;10.60;4.63;;;;;;;;;;5445585;26;20453;-63
2024/04/11 07:08:47;;;;;;;7.93;3.80;;;;;;;;;;5450488;26;20052;-64
2024/04/11 07:11:32;;;;;;;9.55;3.95;;;;;;;;;;5440345;26;19998;-63
2024/04/11 07:13:59;;;;;;;11.88;3.63;;;;;;;;;;5438914;26;20434;-64
2024/04/11 07:16:32;;;;;;;6.60;3.08;;;;;;;;;;5436590;26;19991;-64
2024/04/11 07:19:02;;;;;;;9.60;3.95;;;;;;;;;;5434379;26;20002;-64
2024/04/11 07:21:34;;;;;;;7.32;3.20;;;;;;;;;;5450049;26;19999;-64
2024/04/11 07:24:00;;;;;;;8.35;3.58;;;;;;;;;;5443425;26;20011;-63
2024/04/11 07:26:29;;;;;;;7.95;3.63;;;;;;;;;;5442779;26;20009;-62
2024/04/11 07:28:55;;;;;;;7.82;3.58;;;;;;;;;;5414401;26;20003;-65
2024/04/11 07:31:21;;;;;;;7.60;3.40;;;;;;;;;;5442741;26;19999;-63
2024/04/11 07:33:48;;;;;;;6.78;3.67;;;;;;;;;;5449594;26;19999;-65
2024/04/11 07:36:14;;;;;;;7.35;3.30;;;;;;;;;;5449515;26;20048;-63
2024/04/11 07:38:40;;;;;;;6.82;3.10;;;;;;;;;;5450118;26;20010;-63
2024/04/11 07:41:18;;;;;;;7.13;3.10;;;;;;;;;;5450023;26;20003;-64
2024/04/11 07:43:45;;;;;;;;;;;;;;;;;;5442317;26;20000;-65
2024/04/11 07:46:13;;;;;;;8.07;3.30;;;;;;;;;;5445178;26;19974;-65
2024/04/11 07:48:39;;;;;;;8.18;3.20;;;;;;;;;;5451265;26;20063;-64
2024/04/11 07:51:09;;;;;;;7.32;3.00;;;;;;;;;;5450214;26;20011;-63
2024/04/11 07:53:35;;;;;;;7.45;3.13;;;;;;;;;;5449148;26;20006;-63
2024/04/11 07:56:01;;;;;;;8.02;2.83;;;;;;;;;;5448737;26;19995;-64
2024/04/11 07:58:26;;;;;;;7.05;3.10;;;;;;;;;;5435187;26;19998;-65
2024/04/11 08:00:54;;;;;;;7.32;2.88;;;;;;;;;;5448171;26;20002;-64
2024/04/11 08:03:20;;;;;;;7.95;2.75;;;;;;;;;;5448352;26;20009;-64
2024/04/11 08:05:49;;;;;;;8.50;3.05;;;;;;;;;;5448703;26;20014;-64
2024/04/11 08:08:20;;;;;;;6.57;2.67;;;;;;;;;;5449910;26;20005;-65
2024/04/11 08:10:48;;;;;;;8.73;3.05;;;;;;;;;;5456890;26;20010;-63
2024/04/11 08:13:13;;;;;;;6.05;2.50;;;;;;;;;;5451462;26;20007;-62
2024/04/11 08:15:40;;;;;;;6.82;2.92;;;;;;;;;;5459141;26;20177;-63
2024/04/11 08:18:06;;;;;;;7.72;3.00;;;;;;;;;;5459001;26;20018;-63
2024/04/11 08:20:31;;;;;;;7.07;3.00;;;;;;;;;;5459475;26;20011;-63
2024/04/11 08:22:58;;;;;;;9.00;2.85;;;;;;;;;;5460072;26;20045;-63
2024/04/11 08:25:24;;;;;;;6.68;2.67;;;;;;;;;;5453983;26;20358;-63
2024/04/11 08:27:49;;;;;;;5.70;2.55;;;;;;;;;;5448008;26;20041;-62
2024/04/11 08:30:15;;;;;;;8.30;2.80;;;;;;;;;;5447326;26;20007;-64
2024/04/11 08:32:45;;;;;;;7.03;2.22;;;;;;;;;;5446230;26;20002;-65
2024/04/11 08:35:11;;;;;;;5.75;2.47;;;;;;;;;;5436660;26;20392;-65
2024/04/11 08:37:37;;;;;;;5.13;2.22;;;;;;;;;;5448490;26;20067;-66
2024/04/11 08:40:10;;;;;;;5.55;2.03;;;;;;;;;;5448364;26;20002;-65
2024/04/11 08:42:36;;;;;;;6.70;2.42;;;;;;;;;;5446247;26;19997;-63
2024/04/11 08:45:06;;;;;;;7.28;1.95;;;;;;;;;;5448244;26;20011;-64
2024/04/11 08:47:31;;;;;;;6.82;1.75;;;;;;;;;;5444093;26;20439;-64
2024/04/11 08:49:58;;;;;;;5.35;1.90;;;;;;;;;;5447564;26;20043;-64
2024/04/11 08:52:26;;;;;;;5.05;1.70;;;;;;;;;;5443914;26;20038;-62
2024/04/11 08:54:52;;;;;;;5.10;1.85;;;;;;;;;;5450344;26;20017;-64
2024/04/11 08:57:19;;;;;;;4.72;1.50;;;;;;;;;;5451288;26;20003;-63
2024/04/11 08:59:44;;;;;;;6.53;1.80;;;;;;;;;;5439516;26;20011;-63
2024/04/11 09:02:10;;;;;;;4.85;1.40;;;;;;;;;;5451705;26;19995;-62
2024/04/11 09:04:36;;;;;;;6.10;1.85;;;;;;;;;;5451304;26;20006;-64
2024/04/11 09:07:02;;;;;;;;;;;;;;;;;;5451023;26;19998;-63
2024/04/11 09:09:27;;;;;;;5.47;1.60;;;;;;;;;;5447276;26;20368;-67
2024/04/11 09:11:53;;;;;;;6.43;1.50;;;;;;;;;;5451101;26;20340;-63
2024/04/11 09:14:18;;;;;;;5.35;1.27;;;;;;;;;;5447675;26;20315;-63
2024/04/11 09:16:44;;;;;;;4.65;0.98;;;;;;;;;;5451267;26;20002;-63
2024/04/11 09:19:10;;;;;;;4.20;0.90;;;;;;;;;;5452332;26;20059;-65
2024/04/11 09:21:45;;;;;;;3.53;0.90;;;;;;;;;;5452333;26;20006;-65
2024/04/11 09:24:14;;;;;;;6.28;1.02;;;;;;;;;;5452012;26;20092;-63
2024/04/11 09:26:43;;;;;;;4.40;1.10;;;;;;;;;;5451989;26;20078;-64
2024/04/11 09:29:11;;;;;;;3.78;0.98;;;;;;;;;;5448939;26;20443;-63
2024/04/11 09:31:37;;;;;;;3.65;0.90;;;;;;;;;;5452501;26;19994;-64
2024/04/11 09:34:03;;;;;;;5.10;1.20;;;;;;;;;;5452305;26;19995;-63
2024/04/11 09:36:29;;;;;;;4.78;1.10;;;;;;;;;;5451318;26;20009;-64
2024/04/11 09:39:05;;;;;;;5.65;1.30;;;;;;;;;;5451678;26;20002;-65
2024/04/11 09:41:34;;;;;;;5.65;1.20;;;;;;;;;;5436322;26;20010;-63
2024/04/11 09:44:06;;;;;;;4.90;1.27;;;;;;;;;;5451798;26;20343;-64
2024/04/11 09:46:34;;;;;;;5.55;1.02;;;;;;;;;;5451174;26;19995;-65
2024/04/11 09:49:00;;;;;;;5.57;1.00;;;;;;;;;;5449921;26;19994;-63
2024/04/11 09:51:28;;;;;;;4.03;1.10;;;;;;;;;;5451855;26;19998;-65
2024/04/11 09:53:54;;;;;;;4.95;1.48;;;;;;;;;;5451598;26;19995;-62
2024/04/11 09:56:23;;;;;;;3.75;1.00;;;;;;;;;;5450934;26;20059;-63
2024/04/11 09:58:51;;;;;;;3.22;0.90;;;;;;;;;;5439421;26;20009;-62
2024/04/11 10:01:16;;;;;;;4.22;1.20;;;;;;;;;;5431745;26;20014;-64
2024/04/11 10:03:42;;;;;;;4.85;1.17;;;;;;;;;;5414485;26;20004;-63
2024/04/11 10:06:14;;;;;;;6.45;1.10;;;;;;;;;;5428952;26;20071;-66
2024/04/11 10:08:42;;;;;;;3.25;0.90;;;;;;;;;;5451414;26;20039;-63
2024/04/11 10:11:12;;;;;;;4.28;1.40;;;;;;;;;;5428199;26;20439;-64
2024/04/11 10:13:41;;;;;;;7.22;1.25;;;;;;;;;;5418073;26;20012;-64
2024/04/11 10:16:28;;;;;;;3.53;0.90;;;;;;;;;;5452565;26;19994;-64
2024/04/11 10:19:12;;;;;;;4.43;1.00;;;;;;;;;;5454945;26;19999;-64
2024/04/11 10:21:38;;;;;;;5.45;1.00;;;;;;;;;;5454140;26;20424;-64
2024/04/11 10:24:14;;;;;;;4.40;1.10;;;;;;;;;;5455563;26;20013;-64
2024/04/11 10:26:42;;;;;;;4.75;1.08;;;;;;;;;;5455736;26;20013;-65
2024/04/11 10:29:18;;;;;;;6.35;0.98;;;;;;;;;;5431285;26;20014;-63
2024/04/11 10:31:44;;;;;;;4.65;1.10;;;;;;;;;;5456805;26;19999;-64
2024/04/11 10:34:19;;;;;;;6.13;1.00;;;;;;;;;;5450644;26;20371;-64
2024/04/11 10:36:52;;;;;;;4.78;1.20;;;;;;;;;;5450652;26;19999;-64
2024/04/11 10:39:19;;;;;;;4.50;1.02;;;;;;;;;;5451577;26;20014;-65
2024/04/11 10:41:46;;;;;;;5.70;1.23;;;;;;;;;;5451502;26;20035;-64
2024/04/11 10:44:11;;;;;;;4.97;1.08;;;;;;;;;;5443855;26;20003;-65
2024/04/11 10:46:38;;;;;;;4.50;1.17;;;;;;;;;;5438630;26;20020;-65
2024/04/11 10:49:15;;;;;;;5.82;1.35;;;;;;;;;;5437835;26;20003;-63
2024/04/11 10:51:41;;;;;;;3.88;1.00;;;;;;;;;;5450893;26;20445;-64
2024/04/11 10:54:10;;;;;;;4.57;1.10;;;;;;;;;;5450730;26;20013;-71
2024/04/11 10:56:43;;;;;;;4.75;1.23;;;;;;;;;;5450305;26;19999;-63
2024/04/11 10:59:18;;;;;;;5.78;1.50;;;;;;;;;;5446964;26;20007;-63
2024/04/11 11:01:50;;;;;;;5.20;1.40;;;;;;;;;;5445615;26;20002;-66
2024/04/11 11:04:16;;;;;;;5.05;1.50;;;;;;;;;;5450498;26;19999;-62
2024/04/11 11:06:47;;;;;;;5.20;1.23;;;;;;;;;;5450262;26;20079;-64
2024/04/11 11:09:16;;;;;;;4.28;1.30;;;;;;;;;;5449014;26;20013;-62
2024/04/11 11:11:42;;;;;;;4.47;1.45;;;;;;;;;;5432394;26;20009;-64
2024/04/11 11:14:08;;;;;;;5.53;1.50;;;;;;;;;;5414100;26;20000;-66
2024/04/11 11:16:34;;;;;;;4.70;1.65;;;;;;;;;;5428999;26;20011;-63
2024/04/11 11:19:00;;;;;;;6.78;1.60;;;;;;;;;;5450175;26;20013;-63
2024/04/11 11:21:32;;;;;;;6.07;1.70;;;;;;;;;;5430474;26;20053;-65
2024/04/11 11:24:01;;;;;;;7.28;1.80;;;;;;;;;;5417130;26;20035;-65
2024/04/11 11:26:36;;;;;;;5.28;1.70;;;;;;;;;;5449573;26;20006;-63
2024/04/11 11:29:07;;;;;;;4.25;1.30;;;;;;;;;;5414022;26;19999;-67
2024/04/11 11:31:36;;;;;;;5.65;1.58;;;;;;;;;;5412808;26;20018;-66
2024/04/11 11:34:09;;;;;;;10.00;1.50;;;;;;;;;;5430970;26;20470;-65
2024/04/11 11:36:35;;;;;;;4.95;1.33;;;;;;;;;;5445189;26;20011;-64
2024/04/11 11:39:04;;;;;;;;;;;;;;;;;;5450630;26;19999;-64
2024/04/11 11:41:30;;;;;;;6.22;1.40;;;;;;;;;;5449914;26;19924;-66
2024/04/11 11:43:56;;;;;;;8.00;1.80;;;;;;;;;;5449957;26;20455;-63
2024/04/11 11:46:28;;;;;;;4.95;1.50;;;;;;;;;;5450277;26;20005;-66
2024/04/11 11:48:54;;;;;;;5.63;1.20;;;;;;;;;;5452190;26;20028;-64
2024/04/11 11:51:19;;;;;;;;;;;;;;;;;;5455015;26;20002;-63
2024/04/11 11:53:49;;;;;;;5.10;1.05;;;;;;;;;;5450452;26;19924;-63
2024/04/11 11:56:15;;;;;;;5.50;1.25;;;;;;;;;;5447075;26;20002;-63
2024/04/11 11:58:43;;;;;;;6.15;1.77;;;;;;;;;;5449504;26;20454;-66
2024/04/11 12:01:35;;;;;;;4.35;1.42;;;;;;;;;;5449393;26;20014;-63
2024/04/11 12:04:01;;;;;;;5.88;1.40;;;;;;;;;;5435792;26;20002;-65
2024/04/11 12:06:33;;;;;;;5.68;1.20;;;;;;;;;;5447317;26;20006;-63
2024/04/11 12:09:00;;;;;;;5.18;1.40;;;;;;;;;;5435162;26;20532;-64
2024/04/11 12:11:29;;;;;;;4.95;1.38;;;;;;;;;;5447377;26;20010;-62
2024/04/11 12:14:02;;;;;;;3.85;1.10;;;;;;;;;;5414708;26;20018;-65
2024/04/11 12:16:38;;;;;;;6.13;1.50;;;;;;;;;;5415247;26;20003;-66
2024/04/11 12:19:04;;;;;;;5.63;1.40;;;;;;;;;;5424026;26;20015;-63
2024/04/11 12:21:34;;;;;;;4.75;1.20;;;;;;;;;;5437543;26;20071;-63
2024/04/11 12:23:59;;;;;;;4.97;1.10;;;;;;;;;;5435077;26;19999;-64
2024/04/11 12:26:29;;;;;;;6.72;1.30;;;;;;;;;;5448855;26;20098;-65
2024/04/11 12:28:56;;;;;;;5.70;1.55;;;;;;;;;;5439999;26;19995;-63
2024/04/11 12:31:22;;;;;;;5.43;1.20;;;;;;;;;;5452496;26;20410;-64
2024/04/11 12:33:48;;;;;;;4.43;1.20;;;;;;;;;;5450261;26;20007;-66
2024/04/11 12:39:11;;;;;;;4.80;1.27;;;;;;;;;;5432984;26;20067;-63
2024/04/11 12:41:37;;;;;;;4.82;1.50;;;;;;;;;;5452765;26;20046;-63
2024/04/11 12:44:03;;;;;;;6.53;1.70;;;;;;;;;;5452797;26;20010;-64
2024/04/11 12:46:28;;;;;;;4.28;1.05;;;;;;;;;;5451902;26;20071;-65
2024/04/11 12:48:56;;;;;;;5.07;1.33;;;;;;;;;;5426667;26;20072;-64
2024/04/11 12:51:26;;;;;;;5.65;1.50;;;;;;;;;;5430310;26;20005;-66
2024/04/11 12:53:53;;;;;;;6.22;1.60;;;;;;;;;;5429963;26;20006;-65
2024/04/11 12:56:23;;;;;;;4.95;1.23;;;;;;;;;;5437658;26;20018;-64
2024/04/11 12:58:59;;;;;;;6.57;1.30;;;;;;;;;;5442240;26;19999;-65
2024/04/11 13:01:25;;;;;;;4.00;1.02;;;;;;;;;;5444555;26;19996;-64
2024/04/11 13:06:37;;;;;;;6.40;1.48;;;;;;;;;;5445559;26;19987;-64
2024/04/11 13:09:17;;;;;;;6.10;1.30;;;;;;;;;;5447002;26;19995;-65
2024/04/11 13:11:48;;;;;;;4.82;1.23;;;;;;;;;;5445743;26;20030;-65
2024/04/11 13:14:27;;;;;;;5.18;1.10;;;;;;;;;;5430331;26;20038;-64
2024/04/11 13:17:02;;;;;;;5.32;1.17;;;;;;;;;;5433668;26;20003;-63
2024/04/11 13:19:34;;;;;;;4.45;1.20;;;;;;;;;;5443570;26;20320;-64
2024/04/11 13:22:05;;;;;;;5.55;1.20;;;;;;;;;;5447570;26;20007;-65
2024/04/11 13:24:42;;;;;;;3.95;1.30;;;;;;;;;;5446535;26;20002;-64
2024/04/11 13:27:08;;;;;;;4.57;1.10;;;;;;;;;;5442322;26;20090;-63
2024/04/11 13:29:35;;;;;;;5.70;1.38;;;;;;;;;;5448362;26;20002;-64
2024/04/11 13:32:04;;;;;;;4.15;1.02;;;;;;;;;;5447111;26;20013;-65
2024/04/11 13:37:14;;;;;;;5.05;1.02;;;;;;;;;;5425211;26;20068;-66
2024/04/11 13:40:28;;;;;;;5.90;1.20;;;;;;;;;;5414762;26;20452;-63
2024/04/11 13:42:32;;;;;;;5.15;1.30;;;;;;;;;;5416759;26;20000;-63
2024/04/11 13:44:58;;;;;;;5.63;1.00;;;;;;;;;;5447698;26;20465;-64
2024/04/11 13:47:25;;;;;;;6.90;1.25;;;;;;;;;;5452488;26;20014;-63
2024/04/11 13:49:57;;;;;;;5.07;1.15;;;;;;;;;;5453738;26;20010;-65
2024/04/11 13:52:31;;;;;;;3.95;1.00;;;;;;;;;;5452460;26;20503;-64
2024/04/11 13:54:57;;;;;;;5.18;1.10;;;;;;;;;;5451747;26;20018;-64
2024/04/11 13:57:23;;;;;;;3.97;0.90;;;;;;;;;;5439943;26;20010;-65
2024/04/11 13:59:54;;;;;;;5.82;1.45;;;;;;;;;;5450791;26;20003;-63
2024/04/11 14:02:38;;;;;;;5.72;1.02;;;;;;;;;;5451349;26;19995;-64
2024/04/11 14:05:09;;;;;;;3.35;1.23;;;;;;;;;;5451289;26;20003;-63
2024/04/11 14:07:34;;;;;;;4.45;1.30;;;;;;;;;;5452082;26;20431;-63
2024/04/11 14:10:00;;;;;;;6.00;1.27;;;;;;;;;;5452043;26;20075;-63
2024/04/11 14:12:28;;;;;;;5.05;1.10;;;;;;;;;;5441940;26;20040;-64
2024/04/11 14:14:54;;;;;;;4.07;1.20;;;;;;;;;;5436128;26;19995;-63
2024/04/11 14:17:22;;;;;;;3.60;0.85;;;;;;;;;;5451348;26;20009;-65
2024/04/11 14:20:19;;;;;;;6.72;1.00;;;;;;;;;;5451716;26;20015;-64
2024/04/11 14:22:49;;;;;;;4.95;1.00;;;;;;;;;;5439727;26;20000;-65
2024/04/11 14:27:43;;;;;;;5.03;1.30;;;;;;;;;;5451943;26;20005;-63
2024/04/11 14:30:09;;;;;;;4.80;1.25;;;;;;;;;;5445717;26;19995;-64
2024/04/11 14:37:56;;;;;;;6.10;1.10;;;;;;;;;;5455797;26;20075;-63
2024/04/11 14:40:22;;;;;;;5.65;1.05;;;;;;;;;;5487332;26;20038;-63
2024/04/11 14:42:48;;;;;;;4.03;1.10;;;;;;;;;;5472141;26;20304;-63
2024/04/11 14:45:14;;;;;;;4.70;1.08;;;;;;;;;;5450847;26;19999;-65
2024/04/11 14:47:40;;;;;;;4.75;1.02;;;;;;;;;;5451259;26;19998;-64
2024/04/11 14:50:06;;;;;;;4.88;1.15;;;;;;;;;;5451654;26;19987;-67
2024/04/11 14:52:32;;;;;;;4.63;1.05;;;;;;;;;;5451676;26;20009;-64
2024/04/11 14:54:58;;;;;;;4.88;1.00;;;;;;;;;;5450965;26;20040;-67
2024/04/11 14:57:23;;;;;;;3.60;1.00;;;;;;;;;;5439390;26;20016;-65
2024/04/11 14:59:58;;;;;;;7.20;1.35;;;;;;;;;;5450352;26;20520;-63
2024/04/11 15:02:26;;;;;;;6.22;1.40;;;;;;;;;;5450462;26;20350;-66
2024/04/11 15:04:51;;;;;;;5.50;0.90;;;;;;;;;;5451261;26;20114;-64
2024/04/11 15:07:19;;;;;;;5.68;1.30;;;;;;;;;;5449995;26;20003;-64